createdAt,value
2023-04-09T00:00:27.997Z,20.23
2023-04-09T00:02:55.849Z,20.83
2023-04-09T00:05:23.077Z,20.95
2023-04-09T00:07:50.107Z,21.17
2023-04-09T00:10:17.264Z,21.35
2023-04-09T00:12:44.373Z,20.70
2023-04-09T00:15:20.617Z,20.20
2023-04-09T00:17:56.468Z,20.60
2023-04-09T00:20:24.217Z,20.95
2023-04-09T00:22:52.901Z,20.90
2023-04-09T00:25:20.828Z,21.48
2023-04-09T00:27:48.634Z,20.45
2023-04-09T00:30:16.696Z,20.50
2023-04-09T00:32:44.129Z,20.40
2023-04-09T00:35:12.507Z,21.00
2023-04-09T00:37:39.547Z,21.48
2023-04-09T00:40:07.449Z,21.30
2023-04-09T00:42:36.555Z,19.88
2023-04-09T00:45:04.879Z,20.23
2023-04-09T00:47:32.297Z,19.48
2023-04-09T00:50:01.729Z,20.27
2023-04-09T00:52:32.715Z,20.00
2023-04-09T00:55:04.040Z,19.23
2023-04-09T00:57:31.249Z,17.77
2023-04-09T00:59:58.767Z,18.48
2023-04-09T01:02:26.575Z,17.48
2023-04-09T01:04:53.827Z,17.98
2023-04-09T01:07:58.914Z,18.35
2023-04-09T01:10:32.671Z,18.35
2023-04-09T01:15:50.554Z,17.70
2023-04-09T01:18:40.185Z,18.88
2023-04-09T01:21:20.989Z,17.65
2023-04-09T01:24:25.475Z,18.90
2023-04-09T01:27:07.939Z,18.15
2023-04-09T01:29:45.536Z,18.17
2023-04-09T01:32:14.072Z,18.58
2023-04-09T01:34:42.828Z,17.80
2023-04-09T01:37:11.030Z,19.02
2023-04-09T01:39:39.193Z,17.38
2023-04-09T01:42:11.275Z,17.45
2023-04-09T01:44:41.867Z,17.15
2023-04-09T01:47:10.333Z,18.05
2023-04-09T01:49:40.063Z,17.35
2023-04-09T01:52:07.844Z,16.92
2023-04-09T01:54:34.922Z,16.92
2023-04-09T01:57:02.123Z,16.45
2023-04-09T01:59:29.193Z,17.45
2023-04-09T02:02:05.779Z,16.10
2023-04-09T02:04:52.199Z,16.52
2023-04-09T02:07:26.158Z,16.27
2023-04-09T02:09:54.804Z,15.43
2023-04-09T02:12:23.389Z,15.77
2023-04-09T02:14:53.217Z,16.50
2023-04-09T02:17:20.635Z,15.25
2023-04-09T02:19:48.873Z,15.65
2023-04-09T02:22:16.911Z,15.48
2023-04-09T02:24:44.260Z,16.42
2023-04-09T02:27:11.330Z,15.52
2023-04-09T02:29:41.023Z,15.07
2023-04-09T02:32:08.523Z,14.77
2023-04-09T02:34:35.700Z,15.25
2023-04-09T02:37:02.770Z,14.95
2023-04-09T02:39:29.829Z,15.38
2023-04-09T02:41:58.019Z,14.35
2023-04-09T02:44:25.370Z,15.55
2023-04-09T02:46:52.859Z,15.20
2023-04-09T02:49:19.987Z,14.88
2023-04-09T02:51:47.076Z,14.38
2023-04-09T02:54:14.200Z,15.20
2023-04-09T02:56:41.341Z,16.20
2023-04-09T02:59:08.361Z,15.40
2023-04-09T03:01:35.580Z,15.20
2023-04-09T03:04:03.108Z,15.30
2023-04-09T03:06:30.211Z,15.63
2023-04-09T03:08:57.329Z,15.45
2023-04-09T03:11:24.477Z,15.55
2023-04-09T03:13:53.068Z,15.32
2023-04-09T03:16:20.277Z,14.38
2023-04-09T03:18:47.547Z,14.68
2023-04-09T03:21:15.130Z,15.10
2023-04-09T03:23:42.330Z,14.82
2023-04-09T03:26:09.496Z,15.13
2023-04-09T03:28:36.662Z,15.75
2023-04-09T03:31:03.710Z,16.17
2023-04-09T03:33:31.087Z,16.85
2023-04-09T03:35:58.224Z,17.50
2023-04-09T03:38:25.502Z,17.23
2023-04-09T03:40:52.600Z,18.25
2023-04-09T03:43:19.663Z,18.77
2023-04-09T03:45:46.788Z,18.83
2023-04-09T03:48:13.866Z,19.60
2023-04-09T03:50:42.068Z,18.63
2023-04-09T03:53:09.225Z,19.45
2023-04-09T03:55:37.679Z,17.13
2023-04-09T03:58:04.702Z,18.67
2023-04-09T04:00:31.880Z,18.25
2023-04-09T04:02:59.270Z,19.95
2023-04-09T04:05:26.724Z,18.55
2023-04-09T04:07:54.005Z,18.67
2023-04-09T04:10:21.206Z,17.48
2023-04-09T04:12:48.309Z,18.88
2023-04-09T04:15:15.713Z,17.63
2023-04-09T04:17:42.831Z,17.88
2023-04-09T04:20:10.307Z,18.85
2023-04-09T04:22:37.380Z,17.83
2023-04-09T04:25:05.511Z,17.52
2023-04-09T04:27:32.600Z,19.42
2023-04-09T04:30:00.386Z,19.63
2023-04-09T04:32:27.758Z,18.17
2023-04-09T04:34:54.910Z,17.48
2023-04-09T04:37:22.054Z,18.80
2023-04-09T04:39:49.195Z,18.67
2023-04-09T04:42:17.449Z,18.25
2023-04-09T04:44:45.238Z,20.08
2023-04-09T04:47:12.369Z,18.15
2023-04-09T04:49:39.483Z,19.17
2023-04-09T04:52:07.824Z,19.45
2023-04-09T04:54:34.974Z,19.70
2023-04-09T04:57:02.180Z,17.15
2023-04-09T04:59:29.595Z,18.80
2023-04-09T05:01:56.677Z,17.55
2023-04-09T05:04:23.886Z,12.95
2023-04-09T05:06:51.153Z,12.10
2023-04-09T05:09:18.768Z,10.98
2023-04-09T05:11:46.807Z,9.38
2023-04-09T05:14:13.953Z,8.77
2023-04-09T05:16:41.660Z,7.88
2023-04-09T05:19:08.836Z,8.23
2023-04-09T05:21:35.981Z,8.98
2023-04-09T05:24:03.086Z,8.65
2023-04-09T05:26:30.274Z,6.57
2023-04-09T05:28:59.046Z,7.05
2023-04-09T05:31:26.366Z,6.45
2023-04-09T05:33:53.413Z,6.65
2023-04-09T05:36:20.570Z,5.68
2023-04-09T05:38:48.202Z,5.32
2023-04-09T05:41:15.466Z,5.07
2023-04-09T05:43:43.350Z,5.63
2023-04-09T05:46:10.650Z,5.43
2023-04-09T05:48:37.766Z,4.97
2023-04-09T05:51:05.011Z,5.05
2023-04-09T05:53:32.649Z,5.10
2023-04-09T05:55:59.811Z,4.75
2023-04-09T05:58:29.181Z,4.82
2023-04-09T06:00:56.383Z,5.07
2023-04-09T06:03:23.561Z,5.32
2023-04-09T06:05:50.917Z,4.65
2023-04-09T06:08:18.021Z,4.72
2023-04-09T06:10:45.155Z,4.57
2023-04-09T06:13:12.332Z,4.85
2023-04-09T06:15:40.008Z,5.50
2023-04-09T06:18:07.170Z,6.45
2023-04-09T06:20:34.349Z,6.35
2023-04-09T06:23:01.539Z,6.40
2023-04-09T06:25:28.724Z,5.88
2023-04-09T06:27:55.853Z,6.25
2023-04-09T06:30:23.255Z,6.47
2023-04-09T06:32:54.791Z,5.80
2023-04-09T06:35:23.189Z,6.60
2023-04-09T06:37:50.546Z,5.82
2023-04-09T06:40:18.433Z,6.45
2023-04-09T06:42:46.531Z,6.32
2023-04-09T06:45:13.539Z,7.18
2023-04-09T06:47:40.755Z,7.60
2023-04-09T06:50:08.485Z,8.32
2023-04-09T06:52:35.590Z,7.95
2023-04-09T06:55:02.724Z,8.75
2023-04-09T06:57:30.415Z,8.43
2023-04-09T06:59:57.559Z,9.23
2023-04-09T07:02:24.868Z,9.07
2023-04-09T07:04:52.176Z,8.52
2023-04-09T07:07:21.469Z,9.45
2023-04-09T07:09:50.874Z,9.30
2023-04-09T07:12:28.265Z,9.00
2023-04-09T07:15:10.305Z,10.90
2023-04-09T07:17:37.415Z,10.70
2023-04-09T07:20:05.069Z,9.55
2023-04-09T07:22:32.355Z,9.95
2023-04-09T07:24:59.590Z,10.02
2023-04-09T07:27:27.909Z,9.20
2023-04-09T07:29:56.924Z,8.75
2023-04-09T07:32:24.690Z,9.02
2023-04-09T07:34:53.360Z,8.90
2023-04-09T07:37:21.301Z,8.68
2023-04-09T07:39:49.475Z,8.75
2023-04-09T07:42:16.508Z,8.00
2023-04-09T07:44:44.040Z,8.65
2023-04-09T07:47:13.087Z,8.70
2023-04-09T07:49:40.401Z,9.30
2023-04-09T07:52:08.326Z,9.20
2023-04-09T07:54:35.955Z,9.43
2023-04-09T07:57:03.749Z,9.73
2023-04-09T07:59:36.876Z,10.80
2023-04-09T08:04:32.029Z,9.93
2023-04-09T08:06:59.128Z,9.60
2023-04-09T08:09:26.238Z,10.77
2023-04-09T08:11:53.563Z,11.07
2023-04-09T08:14:21.418Z,10.60
2023-04-09T08:16:50.321Z,10.68
2023-04-09T08:19:19.162Z,10.23
2023-04-09T08:21:48.969Z,9.95
2023-04-09T08:24:16.333Z,8.82
2023-04-09T08:26:43.715Z,9.65
2023-04-09T08:29:14.995Z,10.18
2023-04-09T08:31:42.601Z,10.68
2023-04-09T08:34:09.784Z,10.95
2023-04-09T08:36:37.244Z,14.20
2023-04-09T08:39:04.590Z,14.45
2023-04-09T08:41:31.881Z,15.45
2023-04-09T08:43:59.960Z,16.65
2023-04-09T08:46:27.943Z,13.95
2023-04-09T08:48:55.694Z,9.52
2023-04-09T08:51:25.002Z,9.38
2023-04-09T08:54:02.970Z,8.38
2023-04-09T08:56:31.457Z,8.68
2023-04-09T08:58:58.826Z,8.60
2023-04-09T09:01:27.179Z,9.55
2023-04-09T09:04:03.291Z,9.25
2023-04-09T09:06:35.948Z,11.48
2023-04-09T09:09:13.484Z,10.52
2023-04-09T09:11:48.692Z,12.55
2023-04-09T09:14:18.072Z,9.23
2023-04-09T09:17:06.496Z,10.90
2023-04-09T09:19:39.583Z,10.48
2023-04-09T09:22:10.999Z,14.02
2023-04-09T09:24:53.092Z,11.27
2023-04-09T09:27:42.733Z,8.68
2023-04-09T09:30:24.378Z,8.15
2023-04-09T09:33:06.014Z,7.95
2023-04-09T09:35:56.153Z,8.48
2023-04-09T09:38:27.720Z,9.93
2023-04-09T09:40:58.223Z,11.82
2023-04-09T09:43:40.643Z,8.45
2023-04-09T09:46:11.604Z,8.45
2023-04-09T09:48:43.145Z,8.65
2023-04-09T09:51:15.685Z,9.65
2023-04-09T09:53:50.860Z,9.68
2023-04-09T09:56:28.240Z,9.10
2023-04-09T09:59:09.861Z,8.95
2023-04-09T10:01:40.067Z,8.80
2023-04-09T10:04:16.125Z,9.07
2023-04-09T10:06:53.324Z,9.25
2023-04-09T10:09:25.708Z,10.20
2023-04-09T10:11:57.558Z,10.57
2023-04-09T10:14:31.111Z,11.02
2023-04-09T10:17:02.000Z,10.45
2023-04-09T10:19:40.784Z,10.93
2023-04-09T10:22:19.382Z,12.38
2023-04-09T10:24:47.367Z,11.88
2023-04-09T10:27:19.075Z,12.05
2023-04-09T10:29:52.101Z,11.02
2023-04-09T10:34:52.173Z,12.07
2023-04-09T10:37:24.492Z,12.88
2023-04-09T10:39:52.690Z,14.57
2023-04-09T10:42:42.168Z,15.10
2023-04-09T10:45:10.896Z,15.35
2023-04-09T10:47:40.455Z,16.05
2023-04-09T10:50:22.415Z,19.80
2023-04-09T10:52:56.742Z,18.95
2023-04-09T10:55:37.303Z,20.77
2023-04-09T10:58:06.322Z,23.10
2023-04-09T11:00:38.659Z,23.15
2023-04-09T11:03:22.386Z,25.48
2023-04-09T11:05:54.574Z,26.20
2023-04-09T11:08:22.393Z,26.42
2023-04-09T11:10:51.923Z,28.25
2023-04-09T11:13:21.352Z,28.27
2023-04-09T11:15:48.446Z,28.15
2023-04-09T11:18:24.229Z,25.30
2023-04-09T11:20:58.718Z,24.35
2023-04-09T11:23:26.621Z,24.58
2023-04-09T11:25:54.422Z,25.55
2023-04-09T11:28:22.336Z,23.90
2023-04-09T11:30:53.963Z,24.00
2023-04-09T11:33:24.619Z,22.60
2023-04-09T11:35:54.968Z,22.38
2023-04-09T11:38:24.519Z,22.27
2023-04-09T11:40:58.429Z,21.75
2023-04-09T11:43:28.515Z,21.77
2023-04-09T11:45:59.217Z,20.02
2023-04-09T11:48:28.898Z,21.20
2023-04-09T11:50:56.787Z,21.50
2023-04-09T11:53:24.747Z,21.92
2023-04-09T11:55:53.077Z,22.08
2023-04-09T11:58:27.513Z,23.90
2023-04-09T12:01:00.871Z,23.15
2023-04-09T12:03:38.841Z,24.00
2023-04-09T12:06:07.195Z,23.58
2023-04-09T12:08:37.798Z,23.15
2023-04-09T12:11:14.782Z,21.33
2023-04-09T12:13:47.408Z,21.38
2023-04-09T12:18:55.925Z,22.40
2023-04-09T12:21:28.794Z,22.35
2023-04-09T12:23:58.725Z,21.92
2023-04-09T12:26:27.330Z,21.55
2023-04-09T12:28:54.523Z,22.77
2023-04-09T12:31:21.612Z,22.98
2023-04-09T12:33:48.866Z,23.52
2023-04-09T12:36:15.980Z,23.65
2023-04-09T12:38:43.043Z,24.45
2023-04-09T12:41:10.181Z,24.02
2023-04-09T12:43:37.636Z,23.48
2023-04-09T12:46:05.132Z,25.30
2023-04-09T12:48:32.249Z,25.75
2023-04-09T12:50:59.366Z,24.92
2023-04-09T12:53:26.838Z,26.40
2023-04-09T12:55:53.917Z,25.20
2023-04-09T12:58:21.162Z,24.52
2023-04-09T13:00:48.332Z,27.13
2023-04-09T13:03:17.111Z,26.08
2023-04-09T13:05:44.563Z,27.23
2023-04-09T13:08:11.603Z,27.48
2023-04-09T13:10:38.949Z,28.15
2023-04-09T13:13:08.573Z,29.75
2023-04-09T13:15:36.045Z,29.95
2023-04-09T13:18:03.730Z,28.55
2023-04-09T13:20:32.107Z,28.85
2023-04-09T13:23:02.262Z,28.67
2023-04-09T13:25:29.768Z,31.77
2023-04-09T13:27:56.780Z,28.90
2023-04-09T13:30:24.604Z,29.98
2023-04-09T13:32:53.355Z,27.70
2023-04-09T13:35:21.244Z,28.33
2023-04-09T13:37:51.857Z,27.55
2023-04-09T13:40:19.187Z,27.58
2023-04-09T13:42:46.294Z,28.15
2023-04-09T13:45:13.461Z,27.38
2023-04-09T13:47:41.286Z,27.02
2023-04-09T13:50:10.421Z,27.45
2023-04-09T13:52:37.491Z,28.58
2023-04-09T13:55:05.066Z,29.65
2023-04-09T13:57:32.216Z,28.15
2023-04-09T14:00:02.308Z,28.77
2023-04-09T14:02:29.546Z,30.88
2023-04-09T14:04:57.350Z,28.52
2023-04-09T14:07:24.468Z,30.80
2023-04-09T14:09:51.843Z,31.50
2023-04-09T14:12:19.228Z,31.67
2023-04-09T14:14:46.395Z,31.10
2023-04-09T14:17:13.539Z,31.17
2023-04-09T14:19:40.527Z,32.45
2023-04-09T14:22:09.011Z,31.15
2023-04-09T14:24:40.273Z,31.75
2023-04-09T14:27:08.345Z,32.25
2023-04-09T14:29:36.846Z,29.63
2023-04-09T14:32:06.962Z,31.02
2023-04-09T14:34:34.550Z,32.03
2023-04-09T14:37:05.698Z,30.77
2023-04-09T14:39:36.632Z,30.58
2023-04-09T14:42:08.532Z,30.35
2023-04-09T14:44:38.317Z,30.55
2023-04-09T14:47:09.749Z,30.98
2023-04-09T14:49:37.313Z,31.50
2023-04-09T14:52:04.460Z,30.70
2023-04-09T14:54:32.351Z,33.00
2023-04-09T14:56:59.590Z,31.90
2023-04-09T14:59:27.185Z,33.25
2023-04-09T15:01:54.420Z,35.13
2023-04-09T15:04:22.228Z,36.13
2023-04-09T15:06:49.458Z,37.88
2023-04-09T15:09:16.518Z,33.78
2023-04-09T15:11:43.832Z,35.25
2023-04-09T15:14:14.132Z,36.47
2023-04-09T15:16:46.962Z,35.78
2023-04-09T15:19:17.496Z,36.30
2023-04-09T15:21:44.740Z,35.22
2023-04-09T15:24:15.444Z,36.47
2023-04-09T15:26:46.332Z,35.75
2023-04-09T15:29:16.177Z,35.97
2023-04-09T15:31:47.197Z,39.92
2023-04-09T15:34:18.622Z,38.17
2023-04-09T15:36:49.243Z,39.53
2023-04-09T15:39:18.978Z,38.28
2023-04-09T15:41:46.442Z,39.97
2023-04-09T15:44:17.267Z,40.28
2023-04-09T15:46:45.886Z,38.50
2023-04-09T15:49:13.298Z,39.53
2023-04-09T15:51:40.394Z,36.88
2023-04-09T15:54:08.240Z,37.50
2023-04-09T15:56:39.802Z,38.15
2023-04-09T15:59:08.685Z,36.97
2023-04-09T16:01:37.117Z,38.63
2023-04-09T16:04:08.329Z,37.95
2023-04-09T16:06:37.352Z,36.80
2023-04-09T16:09:04.507Z,36.65
2023-04-09T16:11:31.797Z,34.97
2023-04-09T16:13:59.549Z,32.95
2023-04-09T16:16:27.036Z,34.60
2023-04-09T16:18:59.897Z,33.47
2023-04-09T16:21:31.215Z,33.40
2023-04-09T16:23:58.398Z,32.72
2023-04-09T16:26:26.229Z,32.15
2023-04-09T16:28:53.584Z,33.55
2023-04-09T16:31:21.087Z,32.08
2023-04-09T16:33:48.300Z,32.38
2023-04-09T16:36:15.961Z,30.95
2023-04-09T16:38:43.447Z,30.73
2023-04-09T16:41:10.741Z,31.05
2023-04-09T16:43:37.802Z,30.10
2023-04-09T16:46:07.544Z,29.75
2023-04-09T16:48:36.597Z,28.85
2023-04-09T16:51:03.875Z,28.77
2023-04-09T16:53:31.171Z,27.42
2023-04-09T16:55:58.504Z,26.20
2023-04-09T16:58:26.189Z,26.33
2023-04-09T17:00:54.142Z,27.65
2023-04-09T17:03:23.401Z,26.48
2023-04-09T17:05:55.080Z,25.48
2023-04-09T17:08:24.483Z,25.85
2023-04-09T17:10:52.280Z,25.02
2023-04-09T17:13:19.375Z,26.75
2023-04-09T17:15:46.416Z,26.48
2023-04-09T17:18:13.515Z,27.02
2023-04-09T17:20:40.693Z,26.80
2023-04-09T17:23:07.804Z,29.95
2023-04-09T17:25:34.888Z,28.08
2023-04-09T17:28:01.976Z,28.90
2023-04-09T17:30:33.375Z,27.20
2023-04-09T17:33:02.832Z,24.27
2023-04-09T17:35:30.179Z,24.17
2023-04-09T17:37:57.304Z,25.77
2023-04-09T17:40:25.261Z,24.45
2023-04-09T17:42:53.118Z,23.42
2023-04-09T17:45:20.184Z,22.15
2023-04-09T17:47:47.430Z,22.42
2023-04-09T17:50:15.037Z,20.85
2023-04-09T17:52:42.139Z,19.35
2023-04-09T17:55:13.692Z,19.52
2023-04-09T17:57:42.263Z,20.15
2023-04-09T18:00:11.228Z,21.35
2023-04-09T18:02:38.662Z,20.98
2023-04-09T18:05:06.429Z,19.67
2023-04-09T18:07:34.353Z,18.13
2023-04-09T18:10:04.064Z,18.23
2023-04-09T18:12:31.279Z,19.55
2023-04-09T18:14:58.388Z,19.58
2023-04-09T18:17:26.711Z,17.90
2023-04-09T18:19:54.748Z,17.55
2023-04-09T18:22:22.788Z,18.75
2023-04-09T18:24:49.906Z,17.50
2023-04-09T18:27:17.915Z,17.67
2023-04-09T18:29:45.101Z,19.77
2023-04-09T18:32:12.643Z,18.50
2023-04-09T18:34:39.799Z,17.65
2023-04-09T18:37:07.765Z,17.38
2023-04-09T18:39:35.366Z,16.67
2023-04-09T18:42:02.847Z,17.15
2023-04-09T18:44:30.453Z,22.80
2023-04-09T18:46:59.552Z,22.77
2023-04-09T18:49:27.539Z,17.33
2023-04-09T18:51:56.177Z,16.23
2023-04-09T18:54:23.812Z,22.45
2023-04-09T18:56:50.801Z,22.08
2023-04-09T18:59:17.885Z,17.05
2023-04-09T19:01:45.795Z,16.30
2023-04-09T19:04:14.238Z,15.43
2023-04-09T19:06:41.388Z,15.82
2023-04-09T19:09:08.681Z,18.73
2023-04-09T19:11:35.859Z,17.27
2023-04-09T19:14:03.827Z,17.63
2023-04-09T19:16:31.004Z,18.55
2023-04-09T19:18:58.226Z,19.60
2023-04-09T19:21:29.142Z,17.42
2023-04-09T19:23:56.911Z,15.15
2023-04-09T19:26:24.656Z,15.02
2023-04-09T19:28:51.932Z,15.23
2023-04-09T19:31:19.661Z,16.05
2023-04-09T19:33:46.990Z,16.00
2023-04-09T19:36:15.010Z,19.15
2023-04-09T19:38:42.704Z,18.60
2023-04-09T19:41:10.301Z,17.90
2023-04-09T19:43:39.303Z,16.55
2023-04-09T19:46:09.075Z,16.05
2023-04-09T19:48:38.029Z,16.55
2023-04-09T19:51:06.006Z,17.27
2023-04-09T19:53:33.897Z,16.23
2023-04-09T19:56:01.949Z,17.70
2023-04-09T19:58:32.438Z,19.65
2023-04-09T20:01:00.291Z,18.15
2023-04-09T20:03:28.361Z,18.50
2023-04-09T20:05:58.819Z,18.50
2023-04-09T20:08:27.465Z,19.40
2023-04-09T20:10:54.953Z,19.25
2023-04-09T20:13:22.546Z,18.05
2023-04-09T20:15:50.659Z,19.05
2023-04-09T20:18:18.698Z,20.13
2023-04-09T20:20:46.824Z,19.13
2023-04-09T20:23:14.814Z,18.92
2023-04-09T20:25:41.992Z,18.45
2023-04-09T20:28:10.866Z,18.70
2023-04-09T20:30:38.028Z,17.10
2023-04-09T20:33:05.211Z,17.70
2023-04-09T20:35:36.613Z,16.70
2023-04-09T20:38:06.838Z,17.13
2023-04-09T20:40:36.667Z,17.00
2023-04-09T20:43:04.411Z,14.93
2023-04-09T20:45:31.656Z,14.18
2023-04-09T20:47:58.747Z,14.00
2023-04-09T20:50:26.048Z,14.55
2023-04-09T20:52:53.156Z,13.65
2023-04-09T20:55:20.413Z,13.48
2023-04-09T20:57:48.028Z,13.57
2023-04-09T21:00:16.166Z,12.85
2023-04-09T21:02:46.602Z,12.05
2023-04-09T21:05:23.634Z,13.75
2023-04-09T21:07:55.971Z,16.08
2023-04-09T21:10:23.429Z,14.38
2023-04-09T21:12:50.755Z,13.60
2023-04-09T21:15:18.436Z,14.68
2023-04-09T21:17:45.795Z,14.23
2023-04-09T21:20:13.032Z,13.65
2023-04-09T21:22:40.148Z,23.20
2023-04-09T21:25:07.577Z,13.48
2023-04-09T21:27:34.637Z,13.98
2023-04-09T21:30:01.767Z,12.80
2023-04-09T21:32:28.870Z,12.68
2023-04-09T21:34:55.888Z,12.32
2023-04-09T21:37:23.015Z,12.68
2023-04-09T21:39:50.104Z,11.93
2023-04-09T21:42:17.125Z,12.90
2023-04-09T21:44:44.232Z,12.40
2023-04-09T21:47:12.483Z,13.60
2023-04-09T21:49:40.693Z,12.35
2023-04-09T21:52:14.686Z,12.45
2023-04-09T21:54:43.520Z,13.23
2023-04-09T21:57:11.362Z,14.07
2023-04-09T21:59:38.657Z,12.80
2023-04-09T22:02:05.913Z,13.68
2023-04-09T22:04:35.307Z,13.18
2023-04-09T22:07:03.505Z,14.70
2023-04-09T22:09:31.635Z,13.48
2023-04-09T22:11:59.794Z,17.25
2023-04-09T22:14:29.736Z,18.08
2023-04-09T22:16:58.541Z,17.80
2023-04-09T22:19:26.389Z,14.60
2023-04-09T22:21:54.022Z,15.38
2023-04-09T22:24:27.115Z,14.90
2023-04-09T22:26:54.399Z,13.93
2023-04-09T22:29:21.678Z,12.77
2023-04-09T22:31:48.840Z,13.50
2023-04-09T22:34:21.547Z,13.80
2023-04-09T22:39:16.201Z,14.73
2023-04-09T22:41:43.609Z,14.07
2023-04-09T22:44:10.741Z,14.85
2023-04-09T22:46:37.953Z,13.77
2023-04-09T22:49:06.146Z,14.05
2023-04-09T22:51:36.424Z,13.93
2023-04-09T22:54:03.856Z,13.43
2023-04-09T22:56:33.540Z,14.88
2023-04-09T22:59:00.753Z,14.13
2023-04-09T23:01:28.802Z,14.52
2023-04-09T23:03:56.420Z,15.43
2023-04-09T23:06:25.456Z,15.32
2023-04-09T23:08:52.881Z,14.63
2023-04-09T23:11:21.120Z,14.80
2023-04-09T23:13:48.195Z,12.48
2023-04-09T23:16:15.551Z,12.63
2023-04-09T23:18:42.547Z,13.02
2023-04-09T23:21:10.722Z,12.38
2023-04-09T23:23:38.968Z,12.07
2023-04-09T23:26:06.474Z,11.32
2023-04-09T23:28:33.631Z,12.25
2023-04-09T23:31:00.891Z,12.82
2023-04-09T23:33:28.157Z,12.20
2023-04-09T23:35:55.349Z,12.60
2023-04-09T23:38:22.535Z,12.18
2023-04-09T23:40:50.068Z,11.90
2023-04-09T23:43:17.184Z,11.93
2023-04-09T23:45:44.576Z,11.80
2023-04-09T23:48:12.318Z,11.50
2023-04-09T23:50:41.401Z,13.77
2023-04-09T23:53:09.031Z,14.82
2023-04-09T23:55:41.262Z,13.00
2023-04-09T23:58:09.899Z,12.50
